Time,TemperatureF,DewpointF,PressureIn,WindDirection,WindDirectionDegrees,WindSpeedMPH,WindSpeedGustMPH,Humidity,HourlyPrecipIn,Conditions,Clouds,dailyrainin,SoftwareType,DateUTC
2013-01-12 00:00:00,58.3,58.3,30.10,SW,226,7.0,8.0,100,0.00,,,0.00,Wunderground v.1.15,2013-01-12 05:00:00,
2013-01-12 00:02:00,58.1,58.1,30.10,SW,216,6.0,8.0,100,0.00,,,0.00,Wunderground v.1.15,2013-01-12 05:02:00,
2013-01-12 00:03:00,58.1,58.1,30.10,SSW,212,10.0,10.0,100,0.00,,,0.00,Wunderground v.1.15,2013-01-12 05:03:00,
2013-01-12 00:10:00,58.1,58.1,30.10,SW,224,7.0,9.0,100,0.00,,,0.00,Wunderground v.1.15,2013-01-12 05:10:00,
2013-01-12 00:16:00,58.1,58.1,30.10,SW,232,4.0,7.0,100,0.00,,,0.00,Wunderground v.1.15,2013-01-12 05:16:00,
2013-01-12 00:21:00,58.3,58.3,30.09,SW,232,7.0,7.0,100,0.00,,,0.00,Wunderground v.1.15,2013-01-12 05:21:00,
2013-01-12 00:26:00,58.3,58.3,30.09,SW,230,7.0,8.0,100,0.00,,,0.00,Wunderground v.1.15,2013-01-12 05:26:00,
2013-01-12 00:32:00,58.3,58.3,30.09,SW,217,2.0,8.0,100,0.00,,,0.00,Wunderground v.1.15,2013-01-12 05:32:00,
2013-01-12 00:38:00,58.1,58.1,30.09,South,182,5.0,6.0,100,0.00,,,0.00,Wunderground v.1.15,2013-01-12 05:38:00,
2013-01-12 00:46:00,58.1,58.1,30.09,SSW,198,5.0,6.0,100,0.00,,,0.00,Wunderground v.1.15,2013-01-12 05:46:00,
2013-01-12 00:52:00,58.3,58.3,30.09,SSW,210,6.0,10.0,100,0.00,,,0.00,Wunderground v.1.15,2013-01-12 05:52:00,
2013-01-12 00:58:00,58.3,58.3,30.09,SSW,213,1.0,6.0,100,0.00,,,0.00,Wunderground v.1.15,2013-01-12 05:58:00,
2013-01-12 01:06:00,58.3,58.3,30.09,SW,222,6.0,6.0,100,0.00,,,0.00,Wunderground v.1.15,2013-01-12 06:06:00,
2013-01-12 01:11:00,58.3,58.3,30.09,SSW,213,4.0,6.0,100,0.00,,,0.00,Wunderground v.1.15,2013-01-12 06:11:00,
2013-01-12 01:17:00,58.4,58.4,30.09,WSW,243,3.0,6.0,100,0.00,,,0.00,Wunderground v.1.15,2013-01-12 06:17:00,
2013-01-12 01:22:00,58.4,58.4,30.09,SW,230,5.0,9.0,100,0.00,,,0.00,Wunderground v.1.15,2013-01-12 06:22:00,
2013-01-12 01:27:00,58.4,58.4,30.09,SW,233,8.0,8.0,100,0.00,,,0.00,Wunderground v.1.15,2013-01-12 06:27:00,
2013-01-12 01:32:00,58.4,58.4,30.08,SW,230,10.0,10.0,100,0.00,,,0.00,Wunderground v.1.15,2013-01-12 06:32:00,
2013-01-12 01:38:00,58.6,58.6,30.08,SW,224,2.0,7.0,100,0.00,,,0.00,Wunderground v.1.15,2013-01-12 06:38:00,
2013-01-12 01:46:00,58.6,58.6,30.08,SSE,158,6.0,6.0,100,0.00,,,0.00,Wunderground v.1.15,2013-01-12 06:46:00,
2013-01-12 01:51:00,58.7,58.7,30.08,WSW,239,3.0,12.0,100,0.00,,,0.00,Wunderground v.1.15,2013-01-12 06:51:00,
2013-01-12 01:56:00,58.7,58.7,30.08,WSW,241,10.0,10.0,100,0.00,,,0.00,Wunderground v.1.15,2013-01-12 06:56:00,
2013-01-12 02:01:00,58.7,58.7,30.08,SW,234,6.0,10.0,100,0.00,,,0.00,Wunderground v.1.15,2013-01-12 07:01:00,
2013-01-12 02:07:00,58.7,58.7,30.09,SW,217,5.0,5.0,100,0.00,,,0.00,Wunderground v.1.15,2013-01-12 07:07:00,
2013-01-12 02:12:00,58.7,58.7,30.09,SSW,209,6.0,11.0,100,0.00,,,0.00,Wunderground v.1.15,2013-01-12 07:12:00,
2013-01-12 02:17:00,58.7,58.7,30.09,SW,232,3.0,6.0,100,0.00,,,0.00,Wunderground v.1.15,2013-01-12 07:17:00,
2013-01-12 02:23:00,58.7,58.7,30.09,SW,233,5.0,7.0,100,0.00,,,0.00,Wunderground v.1.15,2013-01-12 07:23:00,
2013-01-12 02:28:00,58.7,58.7,30.09,SSW,205,5.0,6.0,100,0.00,,,0.00,Wunderground v.1.15,2013-01-12 07:28:00,
2013-01-12 02:33:00,58.9,58.9,30.09,SW,217,2.0,8.0,100,0.00,,,0.00,Wunderground v.1.15,2013-01-12 07:33:00,
2013-01-12 02:38:00,58.9,58.9,30.09,SW,230,2.0,5.0,100,0.00,,,0.00,Wunderground v.1.15,2013-01-12 07:38:00,
2013-01-12 02:43:00,58.9,58.9,30.09,SW,232,5.0,8.0,100,0.00,,,0.00,Wunderground v.1.15,2013-01-12 07:43:00,
2013-01-12 02:48:00,58.7,58.7,30.09,WSW,256,6.0,7.0,100,0.00,,,0.00,Wunderground v.1.15,2013-01-12 07:48:00,
2013-01-12 02:53:00,58.7,58.7,30.09,WSW,256,4.0,7.0,100,0.00,,,0.00,Wunderground v.1.15,2013-01-12 07:53:00,
2013-01-12 02:59:00,58.7,58.7,30.09,WSW,247,4.0,7.0,100,0.00,,,0.00,Wunderground v.1.15,2013-01-12 07:59:00,
2013-01-12 03:06:00,58.7,58.7,30.10,WSW,241,4.0,5.0,100,0.00,,,0.00,Wunderground v.1.15,2013-01-12 08:06:00,
2013-01-12 03:11:00,58.7,58.7,30.10,SW,233,2.0,7.0,100,0.00,,,0.00,Wunderground v.1.15,2013-01-12 08:11:00,
2013-01-12 03:16:00,58.7,58.7,30.10,WSW,250,5.0,5.0,100,0.00,,,0.00,Wunderground v.1.15,2013-01-12 08:16:00,
2013-01-12 03:21:00,58.6,58.6,30.08,WSW,241,5.0,7.0,100,0.00,,,0.00,Wunderground v.1.15,2013-01-12 08:21:00,
2013-01-12 03:26:00,58.6,58.6,30.08,WSW,240,5.0,6.0,100,0.00,,,0.00,Wunderground v.1.15,2013-01-12 08:26:00,
2013-01-12 03:32:00,58.6,58.6,30.08,WSW,241,3.0,7.0,100,0.00,,,0.00,Wunderground v.1.15,2013-01-12 08:32:00,
2013-01-12 03:37:00,58.6,58.6,30.08,SW,227,4.0,7.0,100,0.00,,,0.00,Wunderground v.1.15,2013-01-12 08:37:00,
2013-01-12 03:42:00,58.4,58.4,30.08,SW,224,2.0,7.0,100,0.00,,,0.00,Wunderground v.1.15,2013-01-12 08:42:00,
2013-01-12 03:47:00,58.4,58.4,30.08,SW,232,5.0,5.0,100,0.00,,,0.00,Wunderground v.1.15,2013-01-12 08:47:00,
2013-01-12 03:52:00,58.4,58.4,30.08,WSW,250,6.0,7.0,100,0.00,,,0.00,Wunderground v.1.15,2013-01-12 08:52:00,
2013-01-12 03:57:00,58.4,58.4,30.08,WSW,254,4.0,6.0,100,0.00,,,0.00,Wunderground v.1.15,2013-01-12 08:57:00,
2013-01-12 04:03:00,58.4,58.4,30.08,WSW,254,3.0,6.0,100,0.00,,,0.00,Wunderground v.1.15,2013-01-12 09:03:00,
2013-01-12 04:08:00,58.4,58.4,30.08,WSW,254,3.0,5.0,100,0.00,,,0.00,Wunderground v.1.15,2013-01-12 09:08:00,
2013-01-12 04:13:00,58.4,58.4,30.08,WSW,254,2.0,5.0,100,0.00,,,0.00,Wunderground v.1.15,2013-01-12 09:13:00,
2013-01-12 04:18:00,58.3,58.3,30.08,WSW,254,3.0,3.0,100,0.00,,,0.00,Wunderground v.1.15,2013-01-12 09:18:00,
2013-01-12 04:24:00,58.3,58.3,30.08,WSW,254,2.0,2.0,100,0.00,,,0.00,Wunderground v.1.15,2013-01-12 09:24:00,
2013-01-12 04:29:00,58.1,58.1,30.08,WSW,254,4.0,4.0,100,0.00,,,0.00,Wunderground v.1.15,2013-01-12 09:29:00,
2013-01-12 04:34:00,58.1,58.1,30.08,WSW,256,6.0,6.0,100,0.00,,,0.00,Wunderground v.1.15,2013-01-12 09:34:00,
2013-01-12 04:39:00,58.1,58.1,30.08,West,260,2.0,7.0,100,0.00,,,0.00,Wunderground v.1.15,2013-01-12 09:39:00,
2013-01-12 04:46:00,58.1,58.1,30.08,West,261,5.0,5.0,100,0.00,,,0.00,Wunderground v.1.15,2013-01-12 09:46:00,
2013-01-12 04:51:00,58.1,58.1,30.07,West,260,5.0,5.0,100,0.00,,,0.00,Wunderground v.1.15,2013-01-12 09:51:00,
2013-01-12 04:56:00,58.1,58.1,30.07,WSW,254,5.0,5.0,100,0.00,,,0.00,Wunderground v.1.15,2013-01-12 09:56:00,
2013-01-12 05:01:00,58.1,58.1,30.07,WSW,254,3.0,5.0,100,0.00,,,0.00,Wunderground v.1.15,2013-01-12 10:01:00,
2013-01-12 05:06:00,58.0,58.0,30.07,WSW,254,2.0,4.0,100,0.00,,,0.00,Wunderground v.1.15,2013-01-12 10:06:00,
2013-01-12 05:12:00,58.0,58.0,30.07,West,261,5.0,6.0,100,0.00,,,0.00,Wunderground v.1.15,2013-01-12 10:12:00,
2013-01-12 05:17:00,58.0,58.0,30.07,West,260,3.0,4.0,100,0.00,,,0.00,Wunderground v.1.15,2013-01-12 10:17:00,
2013-01-12 05:22:00,58.1,58.1,30.07,WSW,248,4.0,7.0,100,0.00,,,0.00,Wunderground v.1.15,2013-01-12 10:22:00,
2013-01-12 05:27:00,58.0,58.0,30.07,WSW,254,5.0,5.0,100,0.00,,,0.00,Wunderground v.1.15,2013-01-12 10:27:00,
2013-01-12 05:32:00,58.0,58.0,30.06,WSW,256,5.0,5.0,100,0.00,,,0.00,Wunderground v.1.15,2013-01-12 10:32:00,
2013-01-12 05:37:00,58.0,58.0,30.06,WSW,248,3.0,4.0,100,0.00,,,0.00,Wunderground v.1.15,2013-01-12 10:37:00,
2013-01-12 05:42:00,58.0,58.0,30.06,WSW,251,0.0,4.0,100,0.00,,,0.00,Wunderground v.1.15,2013-01-12 10:42:00,
2013-01-12 05:47:00,57.8,57.8,30.06,WSW,251,0.0,1.0,100,0.00,,,0.00,Wunderground v.1.15,2013-01-12 10:47:00,
2013-01-12 05:53:00,57.8,57.8,30.06,SSW,209,2.0,3.0,100,0.00,,,0.00,Wunderground v.1.15,2013-01-12 10:53:00,
2013-01-12 05:58:00,57.6,57.6,30.06,SSW,212,0.0,1.0,100,0.00,,,0.00,Wunderground v.1.15,2013-01-12 10:58:00,
2013-01-12 06:03:00,57.6,57.6,30.06,SSW,198,0.0,1.0,100,0.00,,,0.00,Wunderground v.1.15,2013-01-12 11:03:00,
2013-01-12 06:08:00,57.6,57.6,30.06,SSW,193,3.0,6.0,100,0.00,,,0.00,Wunderground v.1.15,2013-01-12 11:08:00,
2013-01-12 06:13:00,57.6,57.6,30.06,SSW,200,2.0,6.0,100,0.00,,,0.00,Wunderground v.1.15,2013-01-12 11:13:00,
2013-01-12 06:18:00,57.6,57.6,30.07,South,181,0.0,5.0,100,0.00,,,0.00,Wunderground v.1.15,2013-01-12 11:18:00,
2013-01-12 06:23:00,57.6,57.6,30.07,SSW,198,0.0,5.0,100,0.00,,,0.00,Wunderground v.1.15,2013-01-12 11:23:00,
2013-01-12 06:28:00,57.5,57.5,30.07,SSW,198,0.0,2.0,100,0.00,,,0.00,Wunderground v.1.15,2013-01-12 11:28:00,
2013-01-12 06:34:00,57.5,57.5,30.07,SSW,198,0.0,2.0,100,0.00,,,0.00,Wunderground v.1.15,2013-01-12 11:34:00,
2013-01-12 06:39:00,57.5,57.5,30.07,SSW,198,0.0,2.0,100,0.00,,,0.00,Wunderground v.1.15,2013-01-12 11:39:00,
2013-01-12 06:44:00,57.5,57.5,30.07,SSW,198,0.0,2.0,100,0.00,,,0.00,Wunderground v.1.15,2013-01-12 11:44:00,
2013-01-12 06:50:00,57.6,57.6,30.08,WSW,243,1.0,7.0,100,0.00,,,0.00,Wunderground v.1.15,2013-01-12 11:50:00,
2013-01-12 06:56:00,57.6,57.6,30.08,WSW,243,4.0,4.0,100,0.00,,,0.00,Wunderground v.1.15,2013-01-12 11:56:00,
2013-01-12 07:01:00,57.6,57.6,30.08,WSW,243,3.0,4.0,100,0.00,,,0.00,Wunderground v.1.15,2013-01-12 12:01:00,
2013-01-12 07:06:00,57.6,57.6,30.08,West,261,4.0,5.0,100,0.00,,,0.00,Wunderground v.1.15,2013-01-12 12:06:00,
2013-01-12 07:11:00,57.6,57.6,30.08,West,261,3.0,6.0,100,0.00,,,0.00,Wunderground v.1.15,2013-01-12 12:11:00,
2013-01-12 07:17:00,57.6,57.6,30.08,West,261,0.0,4.0,100,0.00,,,0.00,Wunderground v.1.15,2013-01-12 12:17:00,
2013-01-12 07:22:00,57.6,57.6,30.08,WSW,248,0.0,4.0,100,0.00,,,0.00,Wunderground v.1.15,2013-01-12 12:22:00,
2013-01-12 07:27:00,57.6,57.6,30.08,WSW,253,3.0,5.0,100,0.00,,,0.00,Wunderground v.1.15,2013-01-12 12:27:00,
2013-01-12 07:32:00,57.6,57.6,30.09,WSW,253,0.0,5.0,100,0.00,,,0.00,Wunderground v.1.15,2013-01-12 12:32:00,
2013-01-12 07:37:00,57.5,57.5,30.09,WSW,253,0.0,0.0,100,0.00,,,0.00,Wunderground v.1.15,2013-01-12 12:37:00,
2013-01-12 07:42:00,57.5,57.5,30.09,WSW,253,0.0,0.0,100,0.00,,,0.00,Wunderground v.1.15,2013-01-12 12:42:00,
2013-01-12 07:47:00,57.5,57.5,30.09,WSW,253,0.0,0.0,100,0.00,,,0.00,Wunderground v.1.15,2013-01-12 12:47:00,
2013-01-12 07:53:00,57.5,57.5,30.09,South,191,0.0,0.0,100,0.00,,,0.00,Wunderground v.1.15,2013-01-12 12:53:00,
2013-01-12 07:58:00,57.5,57.5,30.09,South,191,0.0,3.0,100,0.00,,,0.00,Wunderground v.1.15,2013-01-12 12:58:00,
2013-01-12 08:03:00,57.5,57.5,30.10,South,191,0.0,3.0,100,0.00,,,0.00,Wunderground v.1.15,2013-01-12 13:03:00,
2013-01-12 08:08:00,57.5,57.5,30.10,South,189,0.0,0.0,100,0.00,,,0.00,Wunderground v.1.15,2013-01-12 13:08:00,
2013-01-12 08:14:00,57.5,57.5,30.10,South,189,0.0,0.0,100,0.00,,,0.00,Wunderground v.1.15,2013-01-12 13:14:00,
2013-01-12 08:19:00,57.5,57.5,30.09,South,189,0.0,0.0,100,0.00,,,0.00,Wunderground v.1.15,2013-01-12 13:19:00,
2013-01-12 08:26:00,57.5,57.5,30.09,South,189,0.0,0.0,100,0.00,,,0.00,Wunderground v.1.15,2013-01-12 13:26:00,
2013-01-12 08:31:00,57.6,57.6,30.09,South,189,0.0,0.0,100,0.00,,,0.00,Wunderground v.1.15,2013-01-12 13:31:00,
2013-01-12 08:36:00,57.6,57.6,30.09,South,189,0.0,0.0,100,0.00,,,0.00,Wunderground v.1.15,2013-01-12 13:36:00,
2013-01-12 08:41:00,57.5,57.5,30.09,South,189,0.0,0.0,100,0.00,,,0.00,Wunderground v.1.15,2013-01-12 13:41:00,
2013-01-12 08:47:00,57.5,57.5,30.09,South,189,0.0,0.0,100,0.00,,,0.00,Wunderground v.1.15,2013-01-12 13:47:00,
2013-01-12 08:52:00,57.5,57.5,30.09,South,189,0.0,0.0,100,0.00,,,0.00,Wunderground v.1.15,2013-01-12 13:52:00,
2013-01-12 08:57:00,57.5,57.5,30.09,South,189,0.0,0.0,100,0.00,,,0.00,Wunderground v.1.15,2013-01-12 13:57:00,
2013-01-12 09:02:00,57.6,57.6,30.10,South,189,0.0,0.0,100,0.00,,,0.00,Wunderground v.1.15,2013-01-12 14:02:00,
2013-01-12 09:07:00,57.8,57.8,30.10,South,189,0.0,0.0,100,0.00,,,0.00,Wunderground v.1.15,2013-01-12 14:07:00,
2013-01-12 09:12:00,58.0,58.0,30.10,South,189,0.0,0.0,100,0.00,,,0.00,Wunderground v.1.15,2013-01-12 14:12:00,
2013-01-12 09:17:00,58.1,58.1,30.11,South,189,0.0,0.0,100,0.00,,,0.00,Wunderground v.1.15,2013-01-12 14:17:00,
2013-01-12 09:22:00,58.1,58.1,30.11,South,189,0.0,0.0,100,0.00,,,0.00,Wunderground v.1.15,2013-01-12 14:22:00,
2013-01-12 09:27:00,58.3,58.3,30.11,South,189,0.0,0.0,100,0.00,,,0.00,Wunderground v.1.15,2013-01-12 14:27:00,
2013-01-12 09:33:00,58.3,58.3,30.11,South,171,0.0,0.0,100,0.00,,,0.00,Wunderground v.1.15,2013-01-12 14:33:00,
2013-01-12 09:38:00,58.3,58.3,30.11,East,79,2.0,5.0,100,0.00,,,0.00,Wunderground v.1.15,2013-01-12 14:38:00,
2013-01-12 09:43:00,58.3,58.3,30.11,East,79,0.0,5.0,100,0.00,,,0.00,Wunderground v.1.15,2013-01-12 14:43:00,
2013-01-12 09:48:00,58.3,58.3,30.11,East,79,0.0,1.0,100,0.00,,,0.00,Wunderground v.1.15,2013-01-12 14:48:00,
2013-01-12 09:53:00,58.3,58.3,30.11,East,79,0.0,1.0,100,0.00,,,0.00,Wunderground v.1.15,2013-01-12 14:53:00,
2013-01-12 09:58:00,58.4,58.4,30.11,East,79,0.0,0.0,100,0.00,,,0.00,Wunderground v.1.15,2013-01-12 14:58:00,
2013-01-12 10:04:00,58.6,58.6,30.11,East,79,0.0,0.0,100,0.00,,,0.00,Wunderground v.1.15,2013-01-12 15:04:00,
2013-01-12 10:09:00,58.9,58.9,30.11,South,178,0.0,0.0,100,0.00,,,0.00,Wunderground v.1.15,2013-01-12 15:09:00,
2013-01-12 10:16:00,59.0,59.0,30.11,South,176,0.0,0.0,100,0.00,,,0.00,Wunderground v.1.15,2013-01-12 15:16:00,
2013-01-12 10:21:00,59.0,59.0,30.11,South,176,0.0,0.0,100,0.00,,,0.00,Wunderground v.1.15,2013-01-12 15:21:00,
2013-01-12 10:26:00,59.2,59.2,30.11,South,176,0.0,0.0,100,0.00,,,0.00,Wunderground v.1.15,2013-01-12 15:26:00,
2013-01-12 10:31:00,59.0,59.0,30.11,South,175,0.0,0.0,100,0.00,,,0.00,Wunderground v.1.15,2013-01-12 15:31:00,
2013-01-12 10:36:00,58.9,58.9,30.11,South,175,0.0,0.0,100,0.00,,,0.00,Wunderground v.1.15,2013-01-12 15:36:00,
2013-01-12 10:41:00,59.0,59.0,30.11,South,176,0.0,0.0,100,0.00,,,0.00,Wunderground v.1.15,2013-01-12 15:41:00,
2013-01-12 10:46:00,58.9,58.9,30.11,South,175,0.0,0.0,100,0.00,,,0.00,Wunderground v.1.15,2013-01-12 15:46:00,
2013-01-12 10:52:00,59.0,59.0,30.11,South,175,0.0,0.0,100,0.00,,,0.00,Wunderground v.1.15,2013-01-12 15:52:00,
2013-01-12 10:57:00,59.2,59.2,30.11,South,175,0.0,0.0,100,0.00,,,0.00,Wunderground v.1.15,2013-01-12 15:57:00,
2013-01-12 11:02:00,59.2,59.2,30.10,South,175,0.0,0.0,100,0.00,,,0.00,Wunderground v.1.15,2013-01-12 16:02:00,
2013-01-12 11:07:00,59.2,59.2,30.10,South,175,0.0,0.0,100,0.00,,,0.00,Wunderground v.1.15,2013-01-12 16:07:00,
2013-01-12 11:12:00,59.2,59.2,30.10,South,175,0.0,0.0,100,0.00,,,0.00,Wunderground v.1.15,2013-01-12 16:12:00,
2013-01-12 11:17:00,59.2,59.2,30.10,South,175,0.0,0.0,100,0.00,,,0.00,Wunderground v.1.15,2013-01-12 16:17:00,
2013-01-12 11:22:00,59.5,59.5,30.10,South,175,0.0,0.0,100,0.00,,,0.00,Wunderground v.1.15,2013-01-12 16:22:00,
2013-01-12 11:27:00,59.5,59.5,30.10,South,175,0.0,0.0,100,0.00,,,0.00,Wunderground v.1.15,2013-01-12 16:27:00,
2013-01-12 11:33:00,59.6,59.6,30.08,South,175,0.0,0.0,100,0.00,,,0.00,Wunderground v.1.15,2013-01-12 16:33:00,
2013-01-12 11:38:00,59.6,59.6,30.08,SSW,209,4.0,4.0,100,0.00,,,0.00,Wunderground v.1.15,2013-01-12 16:38:00,
2013-01-12 11:43:00,59.8,59.8,30.08,South,191,0.0,5.0,100,0.00,,,0.00,Wunderground v.1.15,2013-01-12 16:43:00,
2013-01-12 11:48:00,59.8,59.8,30.08,SSW,212,0.0,4.0,100,0.00,,,0.00,Wunderground v.1.15,2013-01-12 16:48:00,
2013-01-12 11:53:00,60.1,60.1,30.08,SSW,213,0.0,4.0,100,0.00,,,0.00,Wunderground v.1.15,2013-01-12 16:53:00,
2013-01-12 11:58:00,60.4,60.4,30.08,SW,233,0.0,1.0,100,0.00,,,0.00,Wunderground v.1.15,2013-01-12 16:58:00,
2013-01-12 12:04:00,60.5,60.5,30.08,SW,233,0.0,0.0,100,0.00,,,0.00,Wunderground v.1.15,2013-01-12 17:04:00,
2013-01-12 12:09:00,60.7,60.7,30.08,WSW,240,0.0,0.0,100,0.00,,,0.00,Wunderground v.1.15,2013-01-12 17:09:00,
2013-01-12 12:14:00,60.9,60.9,30.08,WSW,240,0.0,0.0,100,0.00,,,0.00,Wunderground v.1.15,2013-01-12 17:14:00,
2013-01-12 12:19:00,61.2,61.2,30.07,WSW,240,0.0,0.0,100,0.00,,,0.00,Wunderground v.1.15,2013-01-12 17:19:00,
2013-01-12 12:24:00,61.5,61.5,30.07,WSW,240,0.0,0.0,100,0.00,,,0.00,Wunderground v.1.15,2013-01-12 17:24:00,
2013-01-12 12:30:00,61.8,61.8,30.07,WSW,240,0.0,0.0,100,0.00,,,0.00,Wunderground v.1.15,2013-01-12 17:30:00,
2013-01-12 12:36:00,61.8,61.8,30.06,WSW,240,0.0,0.0,100,0.00,,,0.00,Wunderground v.1.15,2013-01-12 17:36:00,
2013-01-12 12:42:00,61.8,61.8,30.06,East,96,0.0,0.0,100,0.00,,,0.00,Wunderground v.1.15,2013-01-12 17:42:00,
2013-01-12 12:47:00,61.8,61.8,30.05,East,96,0.0,0.0,100,0.00,,,0.00,Wunderground v.1.15,2013-01-12 17:47:00,
2013-01-12 12:52:00,61.6,61.6,30.05,East,96,0.0,0.0,100,0.00,,,0.00,Wunderground v.1.15,2013-01-12 17:52:00,
2013-01-12 12:57:00,61.6,61.6,30.05,East,96,0.0,0.0,100,0.00,,,0.00,Wunderground v.1.15,2013-01-12 17:57:00,
2013-01-12 13:02:00,61.8,61.8,30.04,South,184,0.0,3.0,100,0.00,,,0.00,Wunderground v.1.15,2013-01-12 18:02:00,
2013-01-12 13:07:00,61.8,61.8,30.04,SW,215,5.0,5.0,100,0.00,,,0.00,Wunderground v.1.15,2013-01-12 18:07:00,
2013-01-12 13:12:00,62.3,62.3,30.04,South,181,0.0,5.0,100,0.00,,,0.00,Wunderground v.1.15,2013-01-12 18:12:00,
2013-01-12 13:17:00,62.6,62.0,30.04,South,182,0.0,7.0,98,0.00,,,0.00,Wunderground v.1.15,2013-01-12 18:17:00,
2013-01-12 13:23:00,62.7,61.5,30.04,SW,229,0.0,7.0,96,0.00,,,0.00,Wunderground v.1.15,2013-01-12 18:23:00,
2013-01-12 13:28:00,62.6,60.8,30.04,SW,217,1.0,7.0,94,0.00,,,0.00,Wunderground v.1.15,2013-01-12 18:28:00,
2013-01-12 13:33:00,62.4,60.3,30.04,South,191,1.0,7.0,93,0.00,,,0.00,Wunderground v.1.15,2013-01-12 18:33:00,
2013-01-12 13:39:00,62.3,59.6,30.04,South,191,1.0,7.0,91,0.00,,,0.00,Wunderground v.1.15,2013-01-12 18:39:00,
2013-01-12 13:46:00,62.7,59.4,30.04,South,175,0.0,3.0,89,0.00,,,0.00,Wunderground v.1.15,2013-01-12 18:46:00,
2013-01-12 13:51:00,63.2,59.3,30.03,SW,216,7.0,7.0,87,0.00,,,0.00,Wunderground v.1.15,2013-01-12 18:51:00,
2013-01-12 13:57:00,63.5,59.6,30.03,SSE,162,7.0,7.0,87,0.00,,,0.00,Wunderground v.1.15,2013-01-12 18:57:00,
2013-01-12 14:02:00,63.7,59.8,30.03,SSW,209,6.0,11.0,87,0.00,,,0.00,Wunderground v.1.15,2013-01-12 19:02:00,
2013-01-12 14:07:00,63.9,59.0,30.03,SW,215,7.0,9.0,84,0.00,,,0.00,Wunderground v.1.15,2013-01-12 19:07:00,
2013-01-12 14:12:00,64.2,59.3,30.03,WSW,253,0.0,9.0,84,0.00,,,0.00,Wunderground v.1.15,2013-01-12 19:12:00,
2013-01-12 14:17:00,64.8,59.9,30.02,South,191,4.0,5.0,84,0.00,,,0.00,Wunderground v.1.15,2013-01-12 19:17:00,
2013-01-12 14:23:00,65.0,58.7,30.02,SW,215,1.0,7.0,80,0.00,,,0.00,Wunderground v.1.15,2013-01-12 19:23:00,
2013-01-12 14:28:00,65.3,57.9,30.02,South,171,2.0,5.0,77,0.00,,,0.00,Wunderground v.1.15,2013-01-12 19:28:00,
2013-01-12 14:33:00,66.0,58.2,30.02,SW,215,8.0,11.0,76,0.00,,,0.00,Wunderground v.1.15,2013-01-12 19:33:00,
2013-01-12 14:38:00,65.8,56.5,30.02,WSW,243,2.0,12.0,72,0.00,,,0.00,Wunderground v.1.15,2013-01-12 19:38:00,
2013-01-12 14:43:00,66.3,57.8,30.02,WSW,248,7.0,12.0,74,0.00,,,0.00,Wunderground v.1.15,2013-01-12 19:43:00,
2013-01-12 14:48:00,66.3,57.8,30.02,SSW,203,3.0,7.0,74,0.00,,,0.00,Wunderground v.1.15,2013-01-12 19:48:00,
2013-01-12 14:54:00,65.5,57.0,30.02,SSW,209,2.0,9.0,74,0.00,,,0.00,Wunderground v.1.15,2013-01-12 19:54:00,
2013-01-12 14:59:00,64.8,57.1,30.02,SW,223,1.0,6.0,76,0.00,,,0.00,Wunderground v.1.15,2013-01-12 19:59:00,
2013-01-12 15:04:00,64.5,56.4,30.02,SSW,192,7.0,7.0,75,0.00,,,0.00,Wunderground v.1.15,2013-01-12 20:04:00,
2013-01-12 15:09:00,64.2,56.1,30.02,WSW,237,4.0,9.0,75,0.00,,,0.00,Wunderground v.1.15,2013-01-12 20:09:00,
2013-01-12 15:16:00,64.0,55.2,30.02,SSW,212,8.0,8.0,73,0.00,,,0.00,Wunderground v.1.15,2013-01-12 20:16:00,
2013-01-12 15:21:00,63.9,54.3,30.03,South,191,7.0,11.0,71,0.00,,,0.00,Wunderground v.1.15,2013-01-12 20:21:00,
2013-01-12 15:26:00,63.9,53.9,30.03,SW,216,0.0,6.0,70,0.00,,,0.00,Wunderground v.1.15,2013-01-12 20:26:00,
2013-01-12 15:31:00,63.9,53.1,30.03,SW,224,8.0,11.0,68,0.00,,,0.00,Wunderground v.1.15,2013-01-12 20:31:00,
2013-01-12 15:37:00,63.7,53.3,30.03,South,172,10.0,11.0,69,0.00,,,0.00,Wunderground v.1.15,2013-01-12 20:37:00,
2013-01-12 15:42:00,63.4,53.4,30.03,SW,230,3.0,13.0,70,0.00,,,0.00,Wunderground v.1.15,2013-01-12 20:42:00,
2013-01-12 15:47:00,63.4,54.2,30.03,West,270,1.0,5.0,72,0.00,,,0.00,Wunderground v.1.15,2013-01-12 20:47:00,
2013-01-12 15:53:00,63.5,54.3,30.03,SSW,213,1.0,6.0,72,0.00,,,0.00,Wunderground v.1.15,2013-01-12 20:53:00,
2013-01-12 15:58:00,63.5,54.7,30.03,SW,236,3.0,7.0,73,0.00,,,0.00,Wunderground v.1.15,2013-01-12 20:58:00,
2013-01-12 16:03:00,63.4,56.1,30.04,West,265,6.0,7.0,77,0.00,,,0.00,Wunderground v.1.15,2013-01-12 21:03:00,
2013-01-12 16:08:00,63.2,55.9,30.04,WSW,258,2.0,4.0,77,0.00,,,0.00,Wunderground v.1.15,2013-01-12 21:08:00,
2013-01-12 16:13:00,63.2,56.2,30.04,SSW,213,0.0,4.0,78,0.00,,,0.00,Wunderground v.1.15,2013-01-12 21:13:00,
2013-01-12 16:19:00,63.1,55.4,30.04,SSW,212,0.0,5.0,76,0.00,,,0.00,Wunderground v.1.15,2013-01-12 21:19:00,
2013-01-12 16:26:00,62.7,55.7,30.04,SSW,203,1.0,1.0,78,0.00,,,0.00,Wunderground v.1.15,2013-01-12 21:26:00,
2013-01-12 16:31:00,62.6,56.0,30.04,South,189,0.0,8.0,79,0.00,,,0.00,Wunderground v.1.15,2013-01-12 21:31:00,
2013-01-12 16:36:00,62.4,56.1,30.04,SW,219,3.0,3.0,80,0.00,,,0.00,Wunderground v.1.15,2013-01-12 21:36:00,
2013-01-12 16:41:00,62.3,56.4,30.04,SW,217,7.0,7.0,81,0.00,,,0.00,Wunderground v.1.15,2013-01-12 21:41:00,
2013-01-12 16:46:00,62.1,56.2,30.04,South,178,3.0,3.0,81,0.00,,,0.00,Wunderground v.1.15,2013-01-12 21:46:00,
2013-01-12 16:52:00,62.0,56.4,30.04,SSW,209,0.0,7.0,82,0.00,,,0.00,Wunderground v.1.15,2013-01-12 21:52:00,
2013-01-12 16:57:00,61.8,56.6,30.04,South,171,2.0,6.0,83,0.00,,,0.00,Wunderground v.1.15,2013-01-12 21:57:00,
2013-01-12 17:02:00,61.8,56.9,30.03,SSW,210,4.0,6.0,84,0.00,,,0.00,Wunderground v.1.15,2013-01-12 22:02:00,
2013-01-12 17:07:00,61.6,56.7,30.03,SSW,198,1.0,9.0,84,0.00,,,0.00,Wunderground v.1.15,2013-01-12 22:07:00,
2013-01-12 17:12:00,61.3,56.4,30.03,SSE,165,1.0,9.0,84,0.00,,,0.00,Wunderground v.1.15,2013-01-12 22:12:00,
2013-01-12 17:17:00,61.2,56.7,30.03,SSW,205,4.0,9.0,85,0.00,,,0.00,Wunderground v.1.15,2013-01-12 22:17:00,
2013-01-12 17:22:00,61.0,56.8,30.03,WSW,237,6.0,10.0,86,0.00,,,0.00,Wunderground v.1.15,2013-01-12 22:22:00,
2013-01-12 17:28:00,60.9,56.7,30.03,West,260,0.0,9.0,86,0.00,,,0.00,Wunderground v.1.15,2013-01-12 22:28:00,
2013-01-12 17:33:00,60.5,56.3,30.04,WSW,241,10.0,13.0,86,0.00,,,0.00,Wunderground v.1.15,2013-01-12 22:33:00,
2013-01-12 17:38:00,60.5,56.6,30.04,SSE,155,5.0,7.0,87,0.00,,,0.00,Wunderground v.1.15,2013-01-12 22:38:00,
2013-01-12 17:43:00,60.2,56.3,30.04,South,182,1.0,12.0,87,0.00,,,0.00,Wunderground v.1.15,2013-01-12 22:43:00,
2013-01-12 17:48:00,60.1,56.2,30.05,WSW,244,3.0,5.0,87,0.00,,,0.00,Wunderground v.1.15,2013-01-12 22:48:00,
2013-01-12 17:53:00,59.9,56.0,30.05,South,174,6.0,8.0,87,0.00,,,0.00,Wunderground v.1.15,2013-01-12 22:53:00,
2013-01-12 17:58:00,59.8,56.2,30.05,SW,215,5.0,9.0,88,0.00,,,0.00,Wunderground v.1.15,2013-01-12 22:58:00,
2013-01-12 18:04:00,59.6,56.0,30.04,SW,216,0.0,4.0,88,0.00,,,0.00,Wunderground v.1.15,2013-01-12 23:04:00,
2013-01-12 18:10:00,59.6,56.0,30.04,South,182,1.0,6.0,88,0.00,,,0.00,Wunderground v.1.15,2013-01-12 23:10:00,
2013-01-12 18:15:00,59.5,56.3,30.04,SW,234,2.0,5.0,89,0.00,,,0.00,Wunderground v.1.15,2013-01-12 23:15:00,
2013-01-12 18:21:00,59.3,56.1,30.04,WSW,240,5.0,8.0,89,0.00,,,0.00,Wunderground v.1.15,2013-01-12 23:21:00,
2013-01-12 18:28:00,59.5,56.6,30.04,SSW,205,6.0,7.0,90,0.00,,,0.00,Wunderground v.1.15,2013-01-12 23:28:00,
2013-01-12 18:33:00,59.5,56.6,30.04,SW,230,5.0,7.0,90,0.00,,,0.00,Wunderground v.1.15,2013-01-12 23:33:00,
2013-01-12 18:38:00,59.5,56.6,30.04,SW,220,5.0,6.0,90,0.00,,,0.00,Wunderground v.1.15,2013-01-12 23:38:00,
2013-01-12 18:43:00,59.5,56.9,30.04,SW,220,3.0,7.0,91,0.00,,,0.00,Wunderground v.1.15,2013-01-12 23:43:00,
2013-01-12 18:49:00,59.3,56.7,30.05,SW,222,5.0,7.0,91,0.00,,,0.00,Wunderground v.1.15,2013-01-12 23:49:00,
2013-01-12 18:56:00,59.5,56.9,30.05,SW,226,1.0,4.0,91,0.00,,,0.00,Wunderground v.1.15,2013-01-12 23:56:00,
2013-01-12 19:01:00,59.5,57.2,30.05,SSW,209,3.0,7.0,92,0.00,,,0.00,Wunderground v.1.15,2013-01-13 00:01:00,
2013-01-12 19:06:00,59.3,57.0,30.05,SW,236,3.0,3.0,92,0.00,,,0.00,Wunderground v.1.15,2013-01-13 00:06:00,
2013-01-12 19:11:00,59.3,57.3,30.05,SW,217,5.0,7.0,93,0.00,,,0.00,Wunderground v.1.15,2013-01-13 00:11:00,
2013-01-12 19:16:00,59.3,57.3,30.05,SSW,202,6.0,6.0,93,0.00,,,0.00,Wunderground v.1.15,2013-01-13 00:16:00,
2013-01-12 19:22:00,59.3,57.6,30.05,SW,216,3.0,10.0,94,0.00,,,0.00,Wunderground v.1.15,2013-01-13 00:22:00,
2013-01-12 19:27:00,59.3,57.6,30.05,WSW,256,2.0,5.0,94,0.00,,,0.00,Wunderground v.1.15,2013-01-13 00:27:00,
2013-01-12 19:32:00,59.3,57.6,30.05,WSW,258,6.0,9.0,94,0.00,,,0.00,Wunderground v.1.15,2013-01-13 00:32:00,
2013-01-12 19:37:00,59.3,57.6,30.05,WSW,240,7.0,7.0,94,0.00,,,0.00,Wunderground v.1.15,2013-01-13 00:37:00,
2013-01-12 19:42:00,59.2,57.5,30.05,South,184,4.0,8.0,94,0.00,,,0.00,Wunderground v.1.15,2013-01-13 00:42:00,
2013-01-12 19:47:00,59.3,57.6,30.04,SSW,210,3.0,6.0,94,0.00,,,0.00,Wunderground v.1.15,2013-01-13 00:47:00,
2013-01-12 19:52:00,59.3,57.6,30.04,SSW,208,6.0,8.0,94,0.00,,,0.00,Wunderground v.1.15,2013-01-13 00:52:00,
2013-01-12 19:57:00,59.3,57.6,30.04,SSW,213,3.0,6.0,94,0.00,,,0.00,Wunderground v.1.15,2013-01-13 00:57:00,
2013-01-12 20:03:00,59.3,57.6,30.05,SSW,205,5.0,10.0,94,0.00,,,0.00,Wunderground v.1.15,2013-01-13 01:03:00,
2013-01-12 20:08:00,59.3,57.6,30.05,SW,232,5.0,7.0,94,0.00,,,0.00,Wunderground v.1.15,2013-01-13 01:08:00,
2013-01-12 20:13:00,59.3,57.6,30.05,SW,226,3.0,7.0,94,0.00,,,0.00,Wunderground v.1.15,2013-01-13 01:13:00,
2013-01-12 20:18:00,59.3,57.6,30.05,SW,217,6.0,8.0,94,0.00,,,0.00,Wunderground v.1.15,2013-01-13 01:18:00,
2013-01-12 20:23:00,59.3,57.6,30.05,WSW,237,6.0,8.0,94,0.00,,,0.00,Wunderground v.1.15,2013-01-13 01:23:00,
2013-01-12 20:28:00,59.2,57.5,30.05,SW,222,5.0,6.0,94,0.00,,,0.00,Wunderground v.1.15,2013-01-13 01:28:00,
2013-01-12 20:33:00,59.2,57.2,30.04,WSW,240,4.0,7.0,93,0.00,,,0.00,Wunderground v.1.15,2013-01-13 01:33:00,
2013-01-12 20:39:00,59.2,57.5,30.04,SW,227,6.0,6.0,94,0.00,,,0.00,Wunderground v.1.15,2013-01-13 01:39:00,
2013-01-12 20:46:00,59.0,57.0,30.04,SSW,212,4.0,4.0,93,0.00,,,0.00,Wunderground v.1.15,2013-01-13 01:46:00,
2013-01-12 20:51:00,59.0,57.3,30.04,SW,216,2.0,7.0,94,0.00,,,0.00,Wunderground v.1.15,2013-01-13 01:51:00,
2013-01-12 20:56:00,58.9,57.2,30.04,SW,222,5.0,6.0,94,0.00,,,0.00,Wunderground v.1.15,2013-01-13 01:56:00,
2013-01-12 21:01:00,58.7,57.0,30.04,SW,234,5.0,8.0,94,0.00,,,0.00,Wunderground v.1.15,2013-01-13 02:01:00,
2013-01-12 21:06:00,58.7,57.0,30.04,WSW,240,3.0,6.0,94,0.00,,,0.00,Wunderground v.1.15,2013-01-13 02:06:00,
2013-01-12 21:11:00,58.6,56.9,30.04,SSW,205,3.0,6.0,94,0.00,,,0.00,Wunderground v.1.15,2013-01-13 02:11:00,
2013-01-12 21:17:00,58.6,56.9,30.03,SW,217,4.0,6.0,94,0.00,,,0.00,Wunderground v.1.15,2013-01-13 02:17:00,
2013-01-12 21:22:00,58.6,56.9,30.03,WSW,244,7.0,8.0,94,0.00,,,0.00,Wunderground v.1.15,2013-01-13 02:22:00,
2013-01-12 21:27:00,58.4,56.7,30.03,SW,230,5.0,7.0,94,0.00,,,0.00,Wunderground v.1.15,2013-01-13 02:27:00,
2013-01-12 21:32:00,58.6,56.9,30.02,SW,226,6.0,11.0,94,0.00,,,0.00,Wunderground v.1.15,2013-01-13 02:32:00,
2013-01-12 21:37:00,58.6,56.6,30.02,SW,227,5.0,9.0,93,0.00,,,0.00,Wunderground v.1.15,2013-01-13 02:37:00,
2013-01-12 21:42:00,58.6,56.6,30.02,West,261,10.0,10.0,93,0.00,,,0.00,Wunderground v.1.15,2013-01-13 02:42:00,
2013-01-12 21:48:00,58.6,56.6,30.03,SW,233,7.0,12.0,93,0.00,,,0.00,Wunderground v.1.15,2013-01-13 02:48:00,
2013-01-12 21:53:00,58.7,56.4,30.03,WSW,247,6.0,12.0,92,0.00,,,0.00,Wunderground v.1.15,2013-01-13 02:53:00,
2013-01-12 21:58:00,58.7,56.4,30.03,WSW,248,6.0,16.0,92,0.00,,,0.00,Wunderground v.1.15,2013-01-13 02:58:00,
2013-01-12 22:03:00,58.6,56.3,30.03,SW,216,5.0,16.0,92,0.00,,,0.00,Wunderground v.1.15,2013-01-13 03:03:00,
2013-01-12 22:08:00,58.6,56.3,30.03,West,261,6.0,8.0,92,0.00,,,0.00,Wunderground v.1.15,2013-01-13 03:08:00,
2013-01-12 22:13:00,58.6,56.3,30.03,WSW,247,8.0,9.0,92,0.00,,,0.00,Wunderground v.1.15,2013-01-13 03:13:00,
2013-01-12 22:18:00,58.6,56.3,30.02,SW,219,6.0,7.0,92,0.00,,,0.00,Wunderground v.1.15,2013-01-13 03:18:00,
2013-01-12 22:23:00,58.4,56.1,30.02,SW,232,6.0,11.0,92,0.00,,,0.00,Wunderground v.1.15,2013-01-13 03:23:00,
2013-01-12 22:28:00,58.4,56.1,30.02,WSW,239,8.0,8.0,92,0.00,,,0.00,Wunderground v.1.15,2013-01-13 03:28:00,
2013-01-12 22:33:00,58.4,56.1,30.03,WSW,243,5.0,8.0,92,0.00,,,0.00,Wunderground v.1.15,2013-01-13 03:33:00,
2013-01-12 22:39:00,58.4,56.1,30.03,WSW,247,7.0,7.0,92,0.00,,,0.00,Wunderground v.1.15,2013-01-13 03:39:00,
2013-01-12 22:44:00,58.4,56.1,30.03,WSW,251,6.0,10.0,92,0.00,,,0.00,Wunderground v.1.15,2013-01-13 03:44:00,
2013-01-12 22:49:00,58.4,56.1,30.03,West,272,7.0,7.0,92,0.00,,,0.00,Wunderground v.1.15,2013-01-13 03:49:00,
2013-01-12 22:56:00,58.6,56.3,30.03,WSW,241,7.0,7.0,92,0.00,,,0.00,Wunderground v.1.15,2013-01-13 03:56:00,
2013-01-12 23:01:00,58.4,56.1,30.03,WSW,243,7.0,8.0,92,0.00,,,0.00,Wunderground v.1.15,2013-01-13 04:01:00,
2013-01-12 23:06:00,58.6,56.0,30.03,SSW,202,5.0,8.0,91,0.00,,,0.00,Wunderground v.1.15,2013-01-13 04:06:00,
2013-01-12 23:11:00,58.4,56.1,30.03,SW,232,7.0,8.0,92,0.00,,,0.00,Wunderground v.1.15,2013-01-13 04:11:00,
2013-01-12 23:16:00,58.4,56.1,30.03,WSW,241,5.0,10.0,92,0.00,,,0.00,Wunderground v.1.15,2013-01-13 04:16:00,
2013-01-12 23:21:00,58.4,55.8,30.03,WSW,246,8.0,10.0,91,0.00,,,0.00,Wunderground v.1.15,2013-01-13 04:21:00,
2013-01-12 23:27:00,58.4,56.1,30.03,SW,234,5.0,8.0,92,0.00,,,0.00,Wunderground v.1.15,2013-01-13 04:27:00,
2013-01-12 23:32:00,58.4,56.1,30.03,SSW,212,8.0,11.0,92,0.00,,,0.00,Wunderground v.1.15,2013-01-13 04:32:00,
2013-01-12 23:37:00,58.4,55.8,30.03,SW,230,12.0,14.0,91,0.00,,,0.00,Wunderground v.1.15,2013-01-13 04:37:00,
2013-01-12 23:42:00,58.6,56.0,30.03,WSW,257,5.0,14.0,91,0.00,,,0.00,Wunderground v.1.15,2013-01-13 04:42:00,
2013-01-12 23:47:00,58.6,56.0,30.03,SW,230,7.0,8.0,91,0.00,,,0.00,Wunderground v.1.15,2013-01-13 04:47:00,
2013-01-12 23:52:00,58.6,56.0,30.03,WSW,258,5.0,8.0,91,0.00,,,0.00,Wunderground v.1.15,2013-01-13 04:52:00,
2013-01-12 23:57:00,58.6,56.0,30.03,SW,223,5.0,12.0,91,0.00,,,0.00,Wunderground v.1.15,2013-01-13 04:57:00,